Time;durP1;ratioP1;P1;durP2;ratioP2;P2;SDS_P1;SDS_P2;PMS_P1;PMS_P2;Temp;Humidity;BMP_temperature;BMP_pressure;BME280_temperature;BME280_humidity;BME280_pressure;Samples;Min_cycle;Max_cycle;Signal;HPM_P1;HPM_P2
2022/04/26 03:36:28;;;;;;;;;;;;;;;10.59;65.92;99266.50;5338796;26;33787;-90
2022/04/26 03:38:57;;;;;;;;;;;;;;;10.44;66.23;99260.72;5339423;26;32538;-90
2022/04/26 03:41:25;;;;;;;;;;;;;;;10.64;65.42;99270.72;5343967;26;34574;-92
2022/04/26 03:43:53;;;;;;;;;;;;;;;10.40;66.20;99266.00;5340230;26;34659;-89
2022/04/26 03:46:21;;;;;;;;;;;;;;;10.49;66.22;99270.16;5340087;26;34301;-89
2022/04/26 03:48:50;;;;;;;;;;;;;;;10.48;66.14;99271.88;5340573;26;32997;-89
2022/04/26 03:51:18;;;;;;;;;;;;;;;10.52;66.07;99283.91;5339515;26;33922;-89
2022/04/26 03:53:48;;;;;;;;;;;;;;;10.76;64.86;99286.91;5342872;26;34244;-89
2022/04/26 03:56:16;;;;;;;;;;;;;;;10.54;65.37;99287.34;5340235;26;34365;-89
2022/04/26 03:58:44;;;;;;;;;;;;;;;10.67;65.01;99287.94;5340218;26;33356;-92
2022/04/26 04:01:13;;;;;;;;;;;;;;;10.66;65.18;99296.62;5340259;26;34356;-89
2022/04/26 04:03:41;;;;;;;;;;;;;;;10.55;65.43;99306.34;5340191;26;34014;-89
2022/04/26 04:06:10;;;;;;;;;;;;;;;10.46;66.06;99308.25;5343208;26;33510;-89
2022/04/26 04:08:38;;;;;;;;;;;;;;;10.53;65.97;99311.56;5340575;26;33550;-91
2022/04/26 04:11:08;;;;;;;;;;;;;;;10.43;66.47;99312.63;5339867;26;34183;-89
2022/04/26 04:13:40;;;;;;;;;;;;;;;10.77;65.28;99306.78;5340015;26;33859;-91
2022/04/26 04:16:08;;;;;;;;;;;;;;;10.80;65.04;99312.78;5338892;26;34665;-90
2022/04/26 04:21:22;;;;;;;;;;;;;;;10.60;66.26;99317.47;5343268;26;33440;-91
2022/04/26 04:23:51;;;;;;;;;;;;;;;10.65;66.00;99319.09;5339248;26;34938;-88
2022/04/26 04:26:20;;;;;;;;;;;;;;;10.58;66.11;99335.69;5338955;26;33652;-88
2022/04/26 04:28:49;;;;;;;;;;;;;;;10.40;66.71;99333.44;5339495;26;34237;-88
2022/04/26 04:31:17;;;;;;;;;;;;;;;10.56;66.38;99337.47;5340094;26;34763;-89
2022/04/26 04:33:46;;;;;;;;;;;;;;;10.50;66.72;99332.38;5343526;26;34151;-88
2022/04/26 04:36:15;;;;;;;;;;;;;;;10.61;66.49;99339.97;5338897;26;34713;-89
2022/04/26 04:38:43;;;;;;;;;;;;;;;10.94;64.92;99334.97;5341622;26;33215;-89
2022/04/26 04:41:17;;;;;;;;;;;;;;;11.16;64.45;99341.44;5343343;26;34723;-87
2022/04/26 04:43:47;;;;;;;;;;;;;;;11.08;64.56;99346.78;5341843;26;34422;-88
2022/04/26 04:46:15;;;;;;;;;;;;;;;10.96;65.10;99353.97;5343175;26;34018;-92
2022/04/26 04:48:44;;;;;;;;;;;;;;;11.13;64.87;99356.22;5345807;26;32986;-86
2022/04/26 04:51:12;;;;;;;;;;;;;;;11.28;64.17;99350.69;5351546;26;33905;-90
2022/04/26 04:53:40;;;;;;;;;;;;;;;11.31;63.91;99359.28;5338848;26;34495;-91
2022/04/26 04:56:09;;;;;;;;;;;;;;;11.45;63.26;99359.00;5338268;26;34847;-88
2022/04/26 04:58:38;;;;;;;;;;;;;;;11.34;63.80;99365.31;5339648;26;33073;-88
2022/04/26 05:01:07;;;;;;;;;;;;;;;11.51;63.33;99371.00;5343376;26;33694;-89
2022/04/26 05:03:36;;;;;;;;;;;;;;;12.28;61.06;99367.47;5337653;26;34347;-88
2022/04/26 05:06:04;;;;;;;;;;;;;;;13.08;57.91;99360.09;5337401;26;33476;-91
2022/04/26 05:08:33;;;;;;;;;;;;;;;13.96;55.13;99370.50;5337615;26;33716;-89
2022/04/26 05:11:02;;;;;;;;;;;;;;;14.54;53.23;99378.19;5339503;26;34854;-88
2022/04/26 05:13:30;;;;;;;;;;;;;;;14.51;52.96;99374.75;5343265;26;34194;-88
2022/04/26 05:15:58;;;;;;;;;;;;;;;15.25;50.97;99382.59;5339116;26;34120;-87
2022/04/26 05:18:29;;;;;;;;;;;;;;;15.56;49.96;99387.53;5339191;26;33276;-88
2022/04/26 05:20:57;;;;;;;;;;;;;;;15.46;49.76;99386.16;5338913;26;33908;-91
2022/04/26 05:26:12;;;;;;;;;;;;;;;14.84;51.67;99391.94;5343061;26;34414;-87
2022/04/26 05:28:40;;;;;;;;;;;;;;;14.70;51.88;99395.03;5343969;26;32939;-88
2022/04/26 05:31:08;;;;;;;;;;;;;;;14.72;52.28;99396.69;5338233;26;33913;-90
2022/04/26 05:33:38;;;;;;;;;;;;;;;14.58;52.42;99396.31;5339689;26;34743;-90
2022/04/26 05:36:06;;;;;;;;;;;;;;;14.79;52.69;99399.09;5339900;26;33803;-90
2022/04/26 05:38:35;;;;;;;;;;;;;;;14.16;53.55;99399.44;5340038;26;32385;-88
2022/04/26 05:41:03;;;;;;;;;;;;;;;13.93;54.53;99397.53;5343005;26;33772;-90
2022/04/26 05:43:32;;;;;;;;;;;;;;;13.84;55.35;99392.59;5339317;26;34954;-87
2022/04/26 05:46:00;;;;;;;;;;;;;;;13.57;55.64;99400.38;5339515;26;34014;-88
2022/04/26 05:48:29;;;;;;;;;;;;;;;13.35;56.56;99407.13;5338086;26;33371;-90
2022/04/26 05:50:58;;;;;;;;;;;;;;;12.93;57.96;99412.63;5338121;26;34183;-87
2022/04/26 05:53:26;;;;;;;;;;;;;;;12.92;58.67;99411.75;5342761;26;33645;-88
2022/04/26 05:55:55;;;;;;;;;;;;;;;12.81;59.39;99419.00;5338394;26;33601;-89
2022/04/26 05:58:23;;;;;;;;;;;;;;;12.60;59.60;99410.84;5339899;26;33255;-90
2022/04/26 06:00:51;;;;;;;;;;;;;;;12.60;59.58;99418.66;5340448;26;34307;-90
2022/04/26 06:03:21;;;;;;;;;;;;;;;12.54;60.48;99416.25;5339091;26;33846;-90
2022/04/26 06:05:49;;;;;;;;;;;;;;;12.54;60.14;99417.97;5341999;26;33364;-92
2022/04/26 06:08:19;;;;;;;;;;;;;;;12.53;60.02;99416.25;5339227;26;35915;-89
2022/04/26 06:10:47;;;;;;;;;;;;;;;12.37;60.27;99420.97;5337058;26;33638;-89
2022/04/26 06:13:16;;;;;;;;;;;;;;;12.35;60.78;99420.19;5339772;26;34253;-90
2022/04/26 06:15:44;;;;;;;;;;;;;;;12.35;60.28;99421.03;5338908;26;34691;-89
2022/04/26 06:18:12;;;;;;;;;;;;;;;12.11;61.45;99416.44;5343552;26;32855;-88
2022/04/26 06:20:41;;;;;;;;;;;;;;;12.54;60.08;99413.63;5340661;26;34361;-92
2022/04/26 06:23:09;;;;;;;;;;;;;;;12.11;61.60;99409.50;5339101;26;34143;-88
2022/04/26 06:25:39;;;;;;;;;;;;;;;12.56;59.99;99413.56;5339990;26;33688;-89
2022/04/26 06:28:09;;;;;;;;;;;;;;;12.60;60.12;99418.66;5339500;26;35217;-90
2022/04/26 06:30:39;;;;;;;;;;;;;;;12.60;59.40;99412.63;5340736;26;33478;-90
2022/04/26 06:33:07;;;;;;;;;;;;;;;12.62;59.79;99404.78;5343027;26;34552;-93
2022/04/26 06:35:43;;;;;;;;;;;;;;;12.75;59.23;99409.59;5339539;26;34736;-90
2022/04/26 06:38:12;;;;;;;;;;;;;;;12.97;58.49;99409.03;5339474;26;33917;-93
2022/04/26 06:40:42;;;;;;;;;;;;;;;12.86;58.94;99413.69;5339648;26;34154;-91
2022/04/26 06:43:10;;;;;;;;;;;;;;;13.33;58.16;99408.91;5339313;26;33717;-90
2022/04/26 06:45:39;;;;;;;;;;;;;;;13.42;56.79;99411.25;5342949;26;34714;-90
2022/04/26 06:48:08;;;;;;;;;;;;;;;13.36;56.96;99412.31;5339015;26;33291;-91
2022/04/26 06:50:36;;;;;;;;;;;;;;;13.34;56.21;99411.50;5339667;26;34252;-91
2022/04/26 06:53:05;;;;;;;;;;;;;;;13.42;55.98;99412.09;5339809;26;33673;-91
2022/04/26 06:55:33;;;;;;;;;;;;;;;13.33;56.87;99412.38;5339884;26;33820;-91
2022/04/26 06:58:03;;;;;;;;;;;;;;;13.49;56.16;99412.78;5344284;26;33369;-91
2022/04/26 07:00:31;;;;;;;;;;;;;;;13.58;55.52;99420.34;5340600;26;34778;-92
2022/04/26 07:02:59;;;;;;;;;;;;;;;13.49;54.77;99428.44;5339059;26;33956;-90
2022/04/26 07:05:28;;;;;;;;;;;;;;;13.60;54.60;99426.38;5338542;26;33922;-90
2022/04/26 07:07:56;;;;;;;;;;;;;;;13.78;54.94;99429.31;5338401;26;32825;-92
2022/04/26 07:10:28;;;;;;;;;;;;;;;13.95;54.01;99432.25;5342842;26;34223;-89
2022/04/26 07:12:57;;;;;;;;;;;;;;;13.88;55.30;99431.56;5343138;26;33914;-89
2022/04/26 07:15:27;;;;;;;;;;;;;;;14.27;54.52;99432.97;5340185;26;34254;-91
2022/04/26 07:17:55;;;;;;;;;;;;;;;14.42;52.22;99427.25;5340811;26;32500;-88
2022/04/26 07:20:24;;;;;;;;;;;;;;;14.45;51.33;99428.94;5339491;26;34708;-89
2022/04/26 07:22:52;;;;;;;;;;;;;;;14.36;52.62;99431.84;5341241;26;33901;-93
2022/04/26 07:25:21;;;;;;;;;;;;;;;14.32;53.59;99436.28;5342180;26;32654;-89
2022/04/26 07:27:49;;;;;;;;;;;;;;;14.54;53.65;99433.00;5339126;26;33128;-89
2022/04/26 07:30:17;;;;;;;;;;;;;;;14.76;52.84;99441.81;5340573;26;34891;-90
2022/04/26 07:35:36;;;;;;;;;;;;;;;14.54;52.62;99438.22;5340106;26;33899;-90
2022/04/26 07:38:05;;;;;;;;;;;;;;;14.46;52.18;99434.09;5342770;26;33971;-89
2022/04/26 07:40:34;;;;;;;;;;;;;;;14.30;52.37;99438.09;5344053;26;34107;-94
2022/04/26 07:43:03;;;;;;;;;;;;;;;14.20;52.41;99437.53;5340034;26;33771;-92
2022/04/26 07:45:37;;;;;;;;;;;;;;;14.26;52.90;99441.72;5340860;26;34322;-92
2022/04/26 07:48:08;;;;;;;;;;;;;;;14.52;52.61;99441.72;5340540;26;32890;-90
2022/04/26 07:50:37;;;;;;;;;;;;;;;14.59;51.62;99444.13;5338666;26;34406;-89
2022/04/26 07:53:05;;;;;;;;;;;;;;;14.62;52.12;99442.28;5344270;26;33893;-91
2022/04/26 07:55:34;;;;;;;;;;;;;;;14.82;50.85;99443.38;5341241;26;34135;-92
2022/04/26 07:58:02;;;;;;;;;;;;;;;14.88;50.75;99449.25;5340577;26;34024;-90
2022/04/26 08:00:31;;;;;;;;;;;;;;;15.00;50.36;99455.78;5341314;26;35017;-91
2022/04/26 08:03:02;;;;;;;;;;;;;;;14.90;50.35;99455.25;5339986;26;33969;-91
2022/04/26 08:05:34;;;;;;;;;;;;;;;15.02;51.25;99460.97;5344302;26;34232;-90
2022/04/26 08:08:03;;;;;;;;;;;;;;;15.23;48.72;99462.81;5339213;26;32664;-90
2022/04/26 08:10:31;;;;;;;;;;;;;;;15.32;48.61;99462.50;5347680;26;35469;-92
2022/04/26 08:13:00;;;;;;;;;;;;;;;15.24;50.31;99453.22;5340837;26;34190;-89
2022/04/26 08:15:40;;;;;;;;;;;;;;;15.32;47.72;99457.25;5340741;26;33895;-91
2022/04/26 08:18:09;;;;;;;;;;;;;;;15.47;48.58;99460.22;5339888;26;33612;-91
2022/04/26 08:20:40;;;;;;;;;;;;;;;15.46;46.93;99458.50;5344497;26;33997;-90
2022/04/26 08:23:10;;;;;;;;;;;;;;;15.67;47.64;99455.09;5341179;26;34126;-90
2022/04/26 08:28:28;;;;;;;;;;;;;;;15.74;47.55;99456.59;5340902;26;33234;-90
2022/04/26 08:31:00;;;;;;;;;;;;;;;16.01;46.15;99456.44;5339747;26;34087;-89
2022/04/26 08:33:49;;;;;;;;;;;;;;;16.30;41.89;99465.75;5338373;26;34978;-92
2022/04/26 08:36:19;;;;;;;;;;;;;;;16.32;43.38;99468.31;5341763;26;34739;-90
2022/04/26 08:38:48;;;;;;;;;;;;;;;16.36;42.48;99467.28;5342425;26;34422;-89
2022/04/26 08:41:16;;;;;;;;;;;;;;;16.34;43.73;99475.19;5339436;26;35307;-90
2022/04/26 08:43:47;;;;;;;;;;;;;;;16.53;43.31;99474.44;5338459;26;32859;-90
2022/04/26 08:46:16;;;;;;;;;;;;;;;16.32;41.73;99476.16;5338563;26;34403;-92
2022/04/26 08:51:34;;;;;;;;;;;;;;;16.27;40.95;99470.28;5342257;26;34834;-92
2022/04/26 08:54:03;;;;;;;;;;;;;;;16.56;41.35;99469.94;5338627;26;33905;-90
2022/04/26 08:56:31;;;;;;;;;;;;;;;16.81;38.87;99479.41;5339497;26;33733;-91
2022/04/26 08:59:00;;;;;;;;;;;;;;;16.76;40.74;99478.72;5339926;26;34039;-89
2022/04/26 09:01:28;;;;;;;;;;;;;;;16.83;40.71;99472.34;5340297;26;34966;-93
2022/04/26 09:03:59;;;;;;;;;;;;;;;16.92;39.36;99485.06;5339972;26;34775;-92
2022/04/26 09:06:40;;;;;;;;;;;;;;;16.87;40.24;99484.41;5341921;26;32586;-93
2022/04/26 09:09:17;;;;;;;;;;;;;;;17.12;39.14;99476.31;5340329;26;32982;-90
2022/04/26 09:11:46;;;;;;;;;;;;;;;16.87;40.26;99478.31;5338312;26;34841;-90
2022/04/26 09:14:28;;;;;;;;;;;;;;;17.14;39.50;99469.25;5340170;26;34428;-90
2022/04/26 09:17:03;;;;;;;;;;;;;;;17.36;38.69;99470.94;5339728;26;34810;-89
2022/04/26 09:19:43;;;;;;;;;;;;;;;16.99;38.76;99478.62;5340297;26;34075;-89
2022/04/26 09:22:17;;;;;;;;;;;;;;;17.06;39.07;99469.59;5343528;26;33742;-91
2022/04/26 09:24:55;;;;;;;;;;;;;;;17.35;38.54;99470.09;5341071;26;33923;-91
2022/04/26 09:27:24;;;;;;;;;;;;;;;17.47;39.30;99473.94;5337867;26;33954;-89
2022/04/26 09:29:52;;;;;;;;;;;;;;;17.40;36.84;99477.75;5339672;26;33187;-92
2022/04/26 09:32:22;;;;;;;;;;;;;;;17.27;38.32;99488.75;5339012;26;34104;-90
2022/04/26 09:34:53;;;;;;;;;;;;;;;17.51;35.66;99479.88;5340133;26;34185;-90
2022/04/26 09:37:22;;;;;;;;;;;;;;;17.69;36.47;99474.66;5343001;26;34645;-89
2022/04/26 09:40:00;;;;;;;;;;;;;;;17.79;35.75;99477.72;5341482;26;34031;-89
2022/04/26 09:42:31;;;;;;;;;;;;;;;17.90;35.17;99472.84;5339967;26;33972;-92
2022/04/26 09:45:06;;;;;;;;;;;;;;;17.75;35.55;99476.13;5340538;26;34857;-89
2022/04/26 09:47:36;;;;;;;;;;;;;;;17.79;34.86;99469.84;5340110;26;34129;-88
2022/04/26 09:50:09;;;;;;;;;;;;;;;17.81;36.00;99470.66;5339246;26;33243;-87
2022/04/26 09:52:39;;;;;;;;;;;;;;;17.96;35.16;99463.81;5342788;26;33846;-87
2022/04/26 09:55:08;;;;;;;;;;;;;;;17.79;35.43;99476.84;5338380;26;34968;-88
2022/04/26 09:57:37;;;;;;;;;;;;;;;17.68;35.12;99467.69;5338460;26;33162;-88
2022/04/26 10:00:08;;;;;;;;;;;;;;;17.81;34.43;99464.56;5336784;26;33928;-88
2022/04/26 10:02:36;;;;;;;;;;;;;;;17.86;34.66;99473.06;5337475;26;33618;-87
2022/04/26 10:05:06;;;;;;;;;;;;;;;17.86;34.53;99473.06;5343760;26;34955;-89
2022/04/26 10:07:35;;;;;;;;;;;;;;;17.91;35.98;99474.53;5338975;26;34174;-87
2022/04/26 10:10:06;;;;;;;;;;;;;;;17.94;35.90;99463.03;5338461;26;33139;-88
2022/04/26 10:12:35;;;;;;;;;;;;;;;18.23;36.65;99472.16;5338240;26;34225;-87
2022/04/26 10:15:03;;;;;;;;;;;;;;;18.54;35.71;99468.03;5338240;26;33912;-88
2022/04/26 10:17:33;;;;;;;;;;;;;;;18.37;36.32;99471.50;5343446;26;34135;-90
2022/04/26 10:20:02;;;;;;;;;;;;;;;18.23;37.17;99469.53;5343408;26;32996;-87
2022/04/26 10:22:49;;;;;;;;;;;;;;;18.62;37.04;99460.63;5337611;26;34643;-89
2022/04/26 10:25:21;;;;;;;;;;;;;;;18.70;36.59;99460.22;5337130;26;33535;-87
2022/04/26 10:28:02;;;;;;;;;;;;;;;18.96;36.61;99454.53;5336860;26;34159;-88
2022/04/26 10:30:46;;;;;;;;;;;;;;;18.94;35.94;99453.78;5339169;26;33106;-88
2022/04/26 10:33:29;;;;;;;;;;;;;;;19.06;36.02;99444.37;5339569;26;35008;-88
2022/04/26 10:36:01;;;;;;;;;;;;;;;18.36;37.52;99442.66;5341313;26;34973;-90
2022/04/26 10:38:29;;;;;;;;;;;;;;;19.05;36.94;99447.13;5341125;26;34325;-89
2022/04/26 10:41:08;;;;;;;;;;;;;;;19.07;37.33;99448.72;5336654;26;33048;-87
2022/04/26 10:43:38;;;;;;;;;;;;;;;19.01;36.57;99445.56;5339806;26;34152;-87
2022/04/26 10:46:10;;;;;;;;;;;;;;;18.80;37.17;99445.75;5338491;26;35025;-87
2022/04/26 10:48:38;;;;;;;;;;;;;;;19.00;38.64;99444.72;5339510;26;34866;-87
2022/04/26 10:51:31;;;;;;;;;;;;;;;18.96;37.76;99444.00;5343786;26;33111;-87
2022/04/26 10:53:59;;;;;;;;;;;;;;;19.29;36.61;99442.34;5340113;26;34544;-87
2022/04/26 10:56:29;;;;;;;;;;;;;;;19.76;35.85;99441.56;5339719;26;34800;-88
2022/04/26 10:58:57;;;;;;;;;;;;;;;19.65;35.70;99436.03;5339117;26;34515;-88
2022/04/26 11:01:27;;;;;;;;;;;;;;;19.58;35.85;99440.78;5340105;26;33213;-90
2022/04/26 11:03:57;;;;;;;;;;;;;;;19.51;36.72;99432.38;5340127;26;34816;-86
2022/04/26 11:06:32;;;;;;;;;;;;;;;19.66;36.29;99438.56;5343856;26;33955;-89
2022/04/26 11:09:09;;;;;;;;;;;;;;;19.68;36.11;99430.63;5340368;26;34064;-86
2022/04/26 11:11:49;;;;;;;;;;;;;;;19.78;36.46;99437.09;5340448;26;33465;-89
2022/04/26 11:14:24;;;;;;;;;;;;;;;20.16;35.51;99434.94;5340468;26;34097;-89
2022/04/26 11:16:56;;;;;;;;;;;;;;;20.03;35.52;99441.84;5339657;26;34489;-89
2022/04/26 11:19:31;;;;;;;;;;;;;;;19.93;36.36;99440.66;5339952;26;33591;-88
2022/04/26 11:22:03;;;;;;;;;;;;;;;19.93;35.70;99438.84;5340225;26;32901;-87
2022/04/26 11:30:02;;;;;;;;;;;;;;;20.17;36.80;99441.06;5329778;26;34491;-87
2022/04/26 11:32:31;;;;;;;;;;;;;;;20.52;35.50;99439.03;5340709;26;33718;-87
2022/04/26 11:34:59;;;;;;;;;;;;;;;21.08;34.34;99431.34;5340256;26;34955;-88
2022/04/26 11:37:28;;;;;;;;;;;;;;;20.98;34.96;99435.50;5339978;26;35135;-86
2022/04/26 11:39:56;;;;;;;;;;;;;;;20.65;35.44;99433.91;5343641;26;33663;-88
2022/04/26 11:42:26;;;;;;;;;;;;;;;20.58;35.12;99433.44;5340815;26;33424;-89
2022/04/26 11:45:01;;;;;;;;;;;;;;;20.39;35.85;99428.38;5340049;26;33804;-87
2022/04/26 11:47:39;;;;;;;;;;;;;;;20.64;35.60;99434.88;5340213;26;34152;-88
2022/04/26 11:50:08;;;;;;;;;;;;;;;20.28;35.93;99430.75;5340701;26;34211;-89
2022/04/26 11:52:37;;;;;;;;;;;;;;;20.54;35.58;99431.91;5343832;26;33326;-89
2022/04/26 11:55:06;;;;;;;;;;;;;;;20.62;36.53;99434.94;5342311;26;33947;-87
2022/04/26 11:57:36;;;;;;;;;;;;;;;20.96;35.37;99429.47;5340097;26;35020;-87
2022/04/26 12:00:05;;;;;;;;;;;;;;;21.08;35.24;99426.94;5339558;26;34524;-88
2022/04/26 12:02:34;;;;;;;;;;;;;;;21.27;34.86;99418.75;5340461;26;33218;-88
2022/04/26 12:05:03;;;;;;;;;;;;;;;22.01;34.08;99423.81;5340136;26;34874;-87
2022/04/26 12:07:31;;;;;;;;;;;;;;;22.34;32.87;99419.00;5343553;26;35248;-87
2022/04/26 12:10:00;;;;;;;;;;;;;;;21.89;33.23;99421.03;5341357;26;34124;-88
2022/04/26 12:12:29;;;;;;;;;;;;;;;21.67;32.90;99424.22;5339856;26;33705;-88
2022/04/26 12:14:59;;;;;;;;;;;;;;;21.17;34.12;99420.25;5339493;26;34704;-87
2022/04/26 12:17:29;;;;;;;;;;;;;;;21.40;33.09;99408.28;5339826;26;34333;-87
2022/04/26 12:19:57;;;;;;;;;;;;;;;21.37;33.74;99415.53;5344021;26;34307;-87
2022/04/26 12:22:28;;;;;;;;;;;;;;;21.66;33.81;99411.94;5340476;26;33674;-87
2022/04/26 12:24:56;;;;;;;;;;;;;;;21.89;32.47;99409.59;5340191;26;33559;-87
2022/04/26 12:27:26;;;;;;;;;;;;;;;22.04;33.90;99406.00;5341936;26;34000;-87
2022/04/26 12:29:55;;;;;;;;;;;;;;;22.39;32.05;99404.66;5339941;26;33186;-88
2022/04/26 12:32:26;;;;;;;;;;;;;;;22.58;32.29;99400.66;5344246;26;33264;-88
2022/04/26 12:34:55;;;;;;;;;;;;;;;22.94;30.13;99395.62;5343987;26;33996;-89
2022/04/26 12:37:26;;;;;;;;;;;;;;;22.71;31.32;99387.47;5339730;26;34243;-89
2022/04/26 12:39:55;;;;;;;;;;;;;;;22.95;30.41;99392.88;5339373;26;32771;-88
2022/04/26 12:42:30;;;;;;;;;;;;;;;22.63;30.42;99383.66;5338914;26;33300;-89
2022/04/26 12:45:01;;;;;;;;;;;;;;;22.67;31.10;99387.78;5338608;26;34645;-87
2022/04/26 12:50:32;;;;;;;;;;;;;;;21.99;31.08;99391.37;5343923;26;34639;-88
2022/04/26 12:53:01;;;;;;;;;;;;;;;21.63;32.11;99391.03;5339993;26;33372;-87
2022/04/26 12:55:31;;;;;;;;;;;;;;;21.43;31.73;99386.13;5340412;26;33965;-88
2022/04/26 12:58:02;;;;;;;;;;;;;;;21.47;32.36;99380.56;5339871;26;34822;-88
2022/04/26 13:00:31;;;;;;;;;;;;;;;21.31;33.02;99371.88;5340572;26;33878;-90
2022/04/26 13:03:02;;;;;;;;;;;;;;;21.22;33.46;99375.13;5343636;26;33561;-90
2022/04/26 13:05:36;;;;;;;;;;;;;;;21.31;32.88;99378.03;5340654;26;34229;-90
2022/04/26 13:08:05;;;;;;;;;;;;;;;21.07;33.64;99374.28;5339850;26;34243;-90
2022/04/26 13:10:34;;;;;;;;;;;;;;;21.21;33.86;99368.97;5340420;26;33835;-89
2022/04/26 13:13:02;;;;;;;;;;;;;;;21.64;32.81;99376.03;5339569;26;34075;-88
2022/04/26 13:15:30;;;;;;;;;;;;;;;21.78;32.69;99377.78;5338977;26;34080;-88
2022/04/26 13:17:59;;;;;;;;;;;;;;;21.99;32.42;99371.13;5342610;26;33985;-89
2022/04/26 13:20:29;;;;;;;;;;;;;;;21.81;31.84;99373.12;5339213;26;34070;-87
2022/04/26 13:22:57;;;;;;;;;;;;;;;21.82;32.38;99371.34;5340118;26;32966;-89
2022/04/26 13:25:26;;;;;;;;;;;;;;;21.79;32.03;99368.91;5339100;26;33868;-86
2022/04/26 13:27:54;;;;;;;;;;;;;;;21.69;33.29;99366.00;5340123;26;34019;-89
2022/04/26 13:30:23;;;;;;;;;;;;;;;21.81;33.42;99373.12;5343496;26;34416;-86
2022/04/26 13:32:54;;;;;;;;;;;;;;;21.98;31.96;99368.56;5340252;26;34158;-88
2022/04/26 13:35:23;;;;;;;;;;;;;;;22.06;31.72;99369.75;5339396;26;33791;-90
2022/04/26 13:37:54;;;;;;;;;;;;;;;22.16;31.60;99370.00;5338104;26;34311;-90
2022/04/26 13:40:23;;;;;;;;;;;;;;;22.06;32.69;99367.13;5339030;26;32823;-87
2022/04/26 13:42:57;;;;;;;;;;;;;;;21.98;32.08;99358.84;5343748;26;34217;-87
2022/04/26 13:45:29;;;;;;;;;;;;;;;21.76;31.92;99364.66;5342958;26;33510;-87
2022/04/26 13:47:57;;;;;;;;;;;;;;;21.80;32.30;99363.53;5338843;26;34192;-86
2022/04/26 13:50:26;;;;;;;;;;;;;;;21.74;32.11;99367.41;5346708;26;33736;-87
2022/04/26 13:52:56;;;;;;;;;;;;;;;21.68;32.51;99354.63;5340031;26;34601;-88
2022/04/26 13:55:26;;;;;;;;;;;;;;;22.01;32.63;99369.22;5339051;26;34191;-87
2022/04/26 13:58:08;;;;;;;;;;;;;;;22.04;32.43;99363.72;5342310;26;34849;-87
2022/04/26 14:00:36;;;;;;;;;;;;;;;21.84;32.40;99366.81;5340254;26;33459;-88
2022/04/26 14:03:06;;;;;;;;;;;;;;;21.87;32.69;99364.84;5338428;26;33746;-88
2022/04/26 14:05:35;;;;;;;;;;;;;;;22.17;31.82;99364.59;5340379;26;34560;-89
2022/04/26 14:08:09;;;;;;;;;;;;;;;21.42;33.24;99368.63;5338703;26;34829;-87
2022/04/26 14:10:38;;;;;;;;;;;;;;;21.52;32.99;99364.44;5341680;26;35475;-86
2022/04/26 14:13:06;;;;;;;;;;;;;;;21.23;33.50;99368.91;5342126;26;33312;-88
2022/04/26 14:24:12;;;;;;;;;;;;;;;21.42;33.79;99366.00;5292412;27;33291;-90
2022/04/26 14:26:42;;;;;;;;;;;;;;;21.39;33.03;99363.50;5292166;27;33400;-88
2022/04/26 14:29:11;;;;;;;;;;;;;;;21.18;34.49;99357.78;5293131;27;33988;-88
2022/04/26 14:31:45;;;;;;;;;;;;;;;21.03;34.05;99356.94;5296457;27;33924;-87
2022/04/26 14:34:14;;;;;;;;;;;;;;;21.16;33.85;99357.88;5293234;27;33186;-88
2022/04/26 14:36:46;;;;;;;;;;;;;;;21.39;33.99;99352.97;5293106;27;33369;-87
2022/04/26 14:39:24;;;;;;;;;;;;;;;21.38;33.78;99351.25;5273820;27;32547;-89
2022/04/26 14:41:53;;;;;;;;;;;;;;;21.47;33.38;99362.09;5292814;27;34608;-87
2022/04/26 14:44:21;;;;;;;;;;;;;;;22.01;32.55;99353.37;5295238;27;33862;-86
2022/04/26 14:46:50;;;;;;;;;;;;;;;22.73;32.48;99350.31;5295564;27;34584;-88
2022/04/26 14:49:21;;;;;;;;;;;;;;;23.50;29.70;99361.69;5292819;27;33874;-89
2022/04/26 14:51:50;;;;;;;;;;;;;;;23.59;29.31;99353.06;5292286;27;34106;-89
2022/04/26 14:54:18;;;;;;;;;;;;;;;23.55;29.46;99353.41;5291262;27;33364;-88
2022/04/26 14:56:48;;;;;;;;;;;;;;;22.95;30.27;99345.25;5292659;27;34228;-88
2022/04/26 14:59:17;;;;;;;;;;;;;;;22.77;30.68;99346.53;5333342;26;34041;-89
2022/04/26 15:01:46;;;;;;;;;;;;;;;22.84;30.98;99347.78;5338805;26;34131;-90
2022/04/26 15:04:15;;;;;;;;;;;;;;;23.07;30.33;99343.56;5340186;26;33373;-88
2022/04/26 15:06:43;;;;;;;;;;;;;;;23.34;30.12;99340.78;5339157;26;34681;-88
2022/04/26 15:17:34;;;;;;;;;;;;;;;23.24;30.01;99337.06;5342286;26;33987;-89
2022/04/26 15:20:03;;;;;;;;;;;;;;;23.21;30.06;99334.66;5339147;26;33976;-90
2022/04/26 15:22:31;;;;;;;;;;;;;;;23.54;29.18;99336.69;5337443;26;33701;-88
2022/04/26 15:24:59;;;;;;;;;;;;;;;23.62;29.96;99334.31;5336677;26;33019;-89
2022/04/26 15:27:29;;;;;;;;;;;;;;;23.35;29.62;99331.88;5337101;26;33758;-88
2022/04/26 15:29:57;;;;;;;;;;;;;;;23.37;29.40;99334.41;5344000;26;33943;-89
2022/04/26 15:32:25;;;;;;;;;;;;;;;23.25;29.94;99325.56;5335995;26;33784;-90
2022/04/26 15:34:54;;;;;;;;;;;;;;;23.15;31.29;99319.22;5339717;26;34013;-89
2022/04/26 15:37:24;;;;;;;;;;;;;;;23.26;30.17;99318.44;5338551;26;34844;-88
2022/04/26 15:39:53;;;;;;;;;;;;;;;23.22;30.76;99317.84;5339578;26;34543;-88
2022/04/26 15:42:21;;;;;;;;;;;;;;;22.86;31.14;99318.56;5343218;26;33733;-89
2022/04/26 15:44:51;;;;;;;;;;;;;;;22.99;30.56;99320.28;5339268;26;33360;-89
2022/04/26 15:47:20;;;;;;;;;;;;;;;22.71;30.77;99310.78;5338056;26;34912;-88
2022/04/26 15:49:48;;;;;;;;;;;;;;;22.80;31.30;99314.56;5340206;26;34867;-89
2022/04/26 15:52:17;;;;;;;;;;;;;;;22.65;31.04;99319.12;5343786;26;33600;-88
2022/04/26 15:54:46;;;;;;;;;;;;;;;22.61;31.37;99322.09;5341809;26;32273;-89
2022/04/26 15:57:14;;;;;;;;;;;;;;;22.48;31.67;99325.56;5340430;26;34226;-89
2022/04/26 15:59:42;;;;;;;;;;;;;;;22.68;30.71;99320.72;5342958;26;34051;-90
2022/04/26 16:02:24;;;;;;;;;;;;;;;22.28;32.21;99319.00;5341474;26;34291;-86
2022/04/26 16:04:56;;;;;;;;;;;;;;;22.20;32.24;99326.59;5349258;26;34034;-89
2022/04/26 16:07:25;;;;;;;;;;;;;;;22.03;32.06;99327.69;5343206;26;34288;-88
2022/04/26 16:21:03;;;;;;;;;;;;;;;21.99;32.50;99320.06;5338896;26;33972;-89
2022/04/26 16:23:38;;;;;;;;;;;;;;;21.70;33.55;99315.75;5339490;26;33266;-90
2022/04/26 16:26:07;;;;;;;;;;;;;;;21.88;33.45;99320.78;5334010;26;33566;-87
2022/04/26 16:28:40;;;;;;;;;;;;;;;21.73;33.38;99325.28;5336096;26;34027;-87
2022/04/26 16:31:08;;;;;;;;;;;;;;;21.77;33.99;99323.25;5338025;26;33899;-88
2022/04/26 16:33:39;;;;;;;;;;;;;;;21.60;33.66;99322.59;5339667;26;34199;-87
2022/04/26 16:36:11;;;;;;;;;;;;;;;21.57;34.46;99321.94;5342583;26;32928;-91
2022/04/26 16:38:39;;;;;;;;;;;;;;;21.56;35.65;99317.59;5341341;26;34472;-89
2022/04/26 16:41:07;;;;;;;;;;;;;;;21.48;34.00;99318.94;5341591;26;34030;-87
2022/04/26 16:43:36;;;;;;;;;;;;;;;21.45;34.80;99320.91;5338402;26;34815;-87
2022/04/26 16:46:06;;;;;;;;;;;;;;;21.56;33.20;99325.53;5338009;26;33378;-89
2022/04/26 16:48:35;;;;;;;;;;;;;;;21.50;33.94;99321.47;5338505;26;34358;-90
2022/04/26 16:51:04;;;;;;;;;;;;;;;21.50;34.51;99327.63;5339913;26;34002;-89
2022/04/26 16:53:33;;;;;;;;;;;;;;;21.45;34.81;99329.69;5342103;26;34915;-89
2022/04/26 16:56:04;;;;;;;;;;;;;;;21.23;35.78;99330.16;5338011;26;33028;-89
2022/04/26 16:58:32;;;;;;;;;;;;;;;21.24;36.46;99331.88;5342985;26;34181;-88
2022/04/26 17:01:01;;;;;;;;;;;;;;;21.03;37.01;99327.94;5353491;26;35442;-90
2022/04/26 17:03:31;;;;;;;;;;;;;;;21.22;34.85;99335.56;5339646;26;34019;-88
2022/04/26 17:06:01;;;;;;;;;;;;;;;21.22;34.49;99327.63;5341379;26;33909;-87
2022/04/26 17:08:39;;;;;;;;;;;;;;;21.03;35.99;99327.94;5343572;26;33840;-88
2022/04/26 17:14:00;;;;;;;;;;;;;;;20.88;37.45;99332.38;5330260;26;33847;-88
2022/04/26 17:16:33;;;;;;;;;;;;;;;20.81;37.72;99346.88;5340209;26;33350;-90
2022/04/26 17:19:02;;;;;;;;;;;;;;;20.76;38.45;99341.88;5339937;26;34501;-87
2022/04/26 17:21:32;;;;;;;;;;;;;;;20.77;38.80;99337.44;5339563;26;35006;-89
2022/04/26 17:24:02;;;;;;;;;;;;;;;20.52;38.88;99344.16;5342982;26;35802;-90
2022/04/26 17:26:33;;;;;;;;;;;;;;;20.45;39.03;99348.94;5338081;26;33280;-87
2022/04/26 17:29:04;;;;;;;;;;;;;;;20.40;39.32;99337.84;5340296;26;34082;-90
2022/04/26 17:31:42;;;;;;;;;;;;;;;20.36;39.39;99340.75;5340202;26;34299;-90